sensor_id;sensor_type;location;lat;lon;timestamp;temperature;humidity
31131;DHT22;20292;50.944;4.034;2022-11-20T00:00:46;6.80;99.90
31131;DHT22;20292;50.944;4.034;2022-11-20T00:03:12;6.80;99.90
31131;DHT22;20292;50.944;4.034;2022-11-20T00:05:38;6.70;99.90
31131;DHT22;20292;50.944;4.034;2022-11-20T00:08:04;6.80;99.90
31131;DHT22;20292;50.944;4.034;2022-11-20T00:10:30;6.60;99.90
31131;DHT22;20292;50.944;4.034;2022-11-20T00:12:57;6.40;99.90
31131;DHT22;20292;50.944;4.034;2022-11-20T00:15:22;6.30;99.90
31131;DHT22;20292;50.944;4.034;2022-11-20T00:17:48;6.10;99.90
31131;DHT22;20292;50.944;4.034;2022-11-20T00:20:14;6.20;99.90
31131;DHT22;20292;50.944;4.034;2022-11-20T00:22:40;5.90;99.90
31131;DHT22;20292;50.944;4.034;2022-11-20T00:25:05;5.90;99.90
31131;DHT22;20292;50.944;4.034;2022-11-20T00:27:31;5.90;99.90
31131;DHT22;20292;50.944;4.034;2022-11-20T00:29:57;5.90;99.90
31131;DHT22;20292;50.944;4.034;2022-11-20T00:32:22;5.80;99.90
31131;DHT22;20292;50.944;4.034;2022-11-20T00:34:48;5.70;99.90
31131;DHT22;20292;50.944;4.034;2022-11-20T00:37:13;5.60;99.90
31131;DHT22;20292;50.944;4.034;2022-11-20T00:39:39;5.80;99.90
31131;DHT22;20292;50.944;4.034;2022-11-20T00:42:04;5.80;99.90
31131;DHT22;20292;50.944;4.034;2022-11-20T00:44:30;5.90;99.90
31131;DHT22;20292;50.944;4.034;2022-11-20T00:46:56;6.00;99.90
31131;DHT22;20292;50.944;4.034;2022-11-20T00:49:21;5.90;99.90
31131;DHT22;20292;50.944;4.034;2022-11-20T00:51:47;5.90;99.90
31131;DHT22;20292;50.944;4.034;2022-11-20T00:54:12;6.00;99.90
31131;DHT22;20292;50.944;4.034;2022-11-20T00:56:38;5.80;99.90
31131;DHT22;20292;50.944;4.034;2022-11-20T00:59:04;5.60;99.90
31131;DHT22;20292;50.944;4.034;2022-11-20T01:01:30;5.70;99.90
31131;DHT22;20292;50.944;4.034;2022-11-20T01:03:58;5.90;99.90
31131;DHT22;20292;50.944;4.034;2022-11-20T01:06:29;6.00;99.90
31131;DHT22;20292;50.944;4.034;2022-11-20T01:08:58;6.10;99.90
31131;DHT22;20292;50.944;4.034;2022-11-20T01:11:27;6.30;99.90
31131;DHT22;20292;50.944;4.034;2022-11-20T01:13:54;6.30;99.90
31131;DHT22;20292;50.944;4.034;2022-11-20T01:16:28;6.40;99.90
31131;DHT22;20292;50.944;4.034;2022-11-20T01:18:57;6.60;99.90
31131;DHT22;20292;50.944;4.034;2022-11-20T01:21:25;6.60;99.90
31131;DHT22;20292;50.944;4.034;2022-11-20T01:23:52;6.50;99.90
31131;DHT22;20292;50.944;4.034;2022-11-20T01:26:20;6.50;99.90
31131;DHT22;20292;50.944;4.034;2022-11-20T01:28:47;6.50;99.90
31131;DHT22;20292;50.944;4.034;2022-11-20T01:31:19;6.30;99.90
31131;DHT22;20292;50.944;4.034;2022-11-20T01:33:47;6.30;99.90
31131;DHT22;20292;50.944;4.034;2022-11-20T01:36:14;6.20;99.90
31131;DHT22;20292;50.944;4.034;2022-11-20T01:38:40;6.30;99.90
31131;DHT22;20292;50.944;4.034;2022-11-20T01:41:07;6.50;99.90
31131;DHT22;20292;50.944;4.034;2022-11-20T01:43:33;6.60;99.90
31131;DHT22;20292;50.944;4.034;2022-11-20T01:46:15;6.70;99.90
31131;DHT22;20292;50.944;4.034;2022-11-20T01:49:20;6.90;99.90
31131;DHT22;20292;50.944;4.034;2022-11-20T01:52:02;7.10;99.90
31131;DHT22;20292;50.944;4.034;2022-11-20T01:54:36;7.10;99.90
31131;DHT22;20292;50.944;4.034;2022-11-20T01:57:04;7.20;99.90
31131;DHT22;20292;50.944;4.034;2022-11-20T01:59:31;7.20;99.90
31131;DHT22;20292;50.944;4.034;2022-11-20T02:01:58;7.20;99.90
31131;DHT22;20292;50.944;4.034;2022-11-20T02:04:24;7.20;99.90
31131;DHT22;20292;50.944;4.034;2022-11-20T02:06:59;7.10;99.90
31131;DHT22;20292;50.944;4.034;2022-11-20T02:09:26;7.10;99.90
31131;DHT22;20292;50.944;4.034;2022-11-20T02:11:52;7.10;99.90
31131;DHT22;20292;50.944;4.034;2022-11-20T02:14:18;7.20;99.90
31131;DHT22;20292;50.944;4.034;2022-11-20T02:16:47;7.20;99.90
31131;DHT22;20292;50.944;4.034;2022-11-20T02:19:34;7.20;99.90
31131;DHT22;20292;50.944;4.034;2022-11-20T02:22:11;7.20;99.90
31131;DHT22;20292;50.944;4.034;2022-11-20T02:24:39;7.30;99.90
31131;DHT22;20292;50.944;4.034;2022-11-20T02:27:14;7.40;99.90
31131;DHT22;20292;50.944;4.034;2022-11-20T02:29:46;7.40;99.90
31131;DHT22;20292;50.944;4.034;2022-11-20T02:32:24;7.30;99.90
31131;DHT22;20292;50.944;4.034;2022-11-20T02:34:50;7.40;99.90
31131;DHT22;20292;50.944;4.034;2022-11-20T02:37:16;7.40;99.90
31131;DHT22;20292;50.944;4.034;2022-11-20T02:39:45;7.40;99.90
31131;DHT22;20292;50.944;4.034;2022-11-20T02:42:11;7.30;99.90
31131;DHT22;20292;50.944;4.034;2022-11-20T02:44:37;7.20;99.90
31131;DHT22;20292;50.944;4.034;2022-11-20T02:47:02;7.30;99.90
31131;DHT22;20292;50.944;4.034;2022-11-20T02:49:28;7.40;99.90
31131;DHT22;20292;50.944;4.034;2022-11-20T02:51:54;7.40;99.90
31131;DHT22;20292;50.944;4.034;2022-11-20T02:54:19;7.50;99.90
31131;DHT22;20292;50.944;4.034;2022-11-20T02:56:45;7.60;99.90
31131;DHT22;20292;50.944;4.034;2022-11-20T02:59:10;7.70;99.90
31131;DHT22;20292;50.944;4.034;2022-11-20T03:01:36;7.70;99.90
31131;DHT22;20292;50.944;4.034;2022-11-20T03:04:02;7.70;99.90
31131;DHT22;20292;50.944;4.034;2022-11-20T03:06:28;7.70;99.90
31131;DHT22;20292;50.944;4.034;2022-11-20T03:08:54;7.70;99.90
31131;DHT22;20292;50.944;4.034;2022-11-20T03:11:20;7.70;99.90
31131;DHT22;20292;50.944;4.034;2022-11-20T03:13:45;7.70;99.90
31131;DHT22;20292;50.944;4.034;2022-11-20T03:16:17;7.70;99.90
31131;DHT22;20292;50.944;4.034;2022-11-20T03:18:43;7.70;99.90
31131;DHT22;20292;50.944;4.034;2022-11-20T03:21:10;7.60;99.90
31131;DHT22;20292;50.944;4.034;2022-11-20T03:23:37;7.70;99.90
31131;DHT22;20292;50.944;4.034;2022-11-20T03:26:13;7.60;99.90
31131;DHT22;20292;50.944;4.034;2022-11-20T03:28:39;7.50;99.90
31131;DHT22;20292;50.944;4.034;2022-11-20T03:31:10;7.40;99.90
31131;DHT22;20292;50.944;4.034;2022-11-20T03:33:37;7.40;99.90
31131;DHT22;20292;50.944;4.034;2022-11-20T03:36:04;7.40;99.90
31131;DHT22;20292;50.944;4.034;2022-11-20T03:38:32;7.40;99.90
31131;DHT22;20292;50.944;4.034;2022-11-20T03:41:01;7.50;99.90
31131;DHT22;20292;50.944;4.034;2022-11-20T03:43:27;7.50;99.90
31131;DHT22;20292;50.944;4.034;2022-11-20T03:45:53;7.60;99.90
31131;DHT22;20292;50.944;4.034;2022-11-20T03:48:19;7.60;99.90
31131;DHT22;20292;50.944;4.034;2022-11-20T03:50:44;7.60;99.90
31131;DHT22;20292;50.944;4.034;2022-11-20T03:53:16;7.60;99.90
31131;DHT22;20292;50.944;4.034;2022-11-20T03:55:41;7.50;99.90
31131;DHT22;20292;50.944;4.034;2022-11-20T03:58:07;7.50;99.90
31131;DHT22;20292;50.944;4.034;2022-11-20T04:00:34;7.50;99.90
31131;DHT22;20292;50.944;4.034;2022-11-20T04:03:00;7.50;99.90
31131;DHT22;20292;50.944;4.034;2022-11-20T04:05:26;7.50;99.90
31131;DHT22;20292;50.944;4.034;2022-11-20T04:07:52;7.40;99.90
31131;DHT22;20292;50.944;4.034;2022-11-20T04:10:17;7.40;99.90
31131;DHT22;20292;50.944;4.034;2022-11-20T04:12:43;7.30;99.90
31131;DHT22;20292;50.944;4.034;2022-11-20T04:15:09;7.40;99.90
31131;DHT22;20292;50.944;4.034;2022-11-20T04:17:35;7.30;99.90
31131;DHT22;20292;50.944;4.034;2022-11-20T04:20:01;7.30;99.90
31131;DHT22;20292;50.944;4.034;2022-11-20T04:22:26;7.30;99.90
31131;DHT22;20292;50.944;4.034;2022-11-20T04:24:52;7.40;99.90
31131;DHT22;20292;50.944;4.034;2022-11-20T04:27:18;7.40;99.90
31131;DHT22;20292;50.944;4.034;2022-11-20T04:29:43;7.40;99.90
31131;DHT22;20292;50.944;4.034;2022-11-20T04:32:09;7.40;99.90
31131;DHT22;20292;50.944;4.034;2022-11-20T04:34:34;7.40;99.90
31131;DHT22;20292;50.944;4.034;2022-11-20T04:37:00;7.40;99.90
31131;DHT22;20292;50.944;4.034;2022-11-20T04:39:26;7.40;99.90
31131;DHT22;20292;50.944;4.034;2022-11-20T04:41:51;7.40;99.90
31131;DHT22;20292;50.944;4.034;2022-11-20T04:44:37;7.50;99.90
31131;DHT22;20292;50.944;4.034;2022-11-20T04:47:03;7.50;99.90
31131;DHT22;20292;50.944;4.034;2022-11-20T04:49:28;7.60;99.90
31131;DHT22;20292;50.944;4.034;2022-11-20T04:51:54;7.40;99.90
31131;DHT22;20292;50.944;4.034;2022-11-20T04:54:19;7.50;99.90
31131;DHT22;20292;50.944;4.034;2022-11-20T04:56:48;7.50;99.90
31131;DHT22;20292;50.944;4.034;2022-11-20T04:59:14;7.70;99.90
31131;DHT22;20292;50.944;4.034;2022-11-20T05:01:39;7.60;99.90
31131;DHT22;20292;50.944;4.034;2022-11-20T05:04:05;7.70;99.90
31131;DHT22;20292;50.944;4.034;2022-11-20T05:06:31;7.70;99.90
31131;DHT22;20292;50.944;4.034;2022-11-20T05:08:57;7.70;99.90
31131;DHT22;20292;50.944;4.034;2022-11-20T05:11:23;7.70;99.90
31131;DHT22;20292;50.944;4.034;2022-11-20T05:13:50;7.80;99.90
31131;DHT22;20292;50.944;4.034;2022-11-20T05:16:19;7.90;99.90
31131;DHT22;20292;50.944;4.034;2022-11-20T05:18:45;7.80;99.90
31131;DHT22;20292;50.944;4.034;2022-11-20T05:21:12;7.90;99.90
31131;DHT22;20292;50.944;4.034;2022-11-20T05:23:38;7.90;99.90
31131;DHT22;20292;50.944;4.034;2022-11-20T05:26:06;7.90;99.90
31131;DHT22;20292;50.944;4.034;2022-11-20T05:28:32;7.70;99.90
31131;DHT22;20292;50.944;4.034;2022-11-20T05:33:32;7.80;99.90
31131;DHT22;20292;50.944;4.034;2022-11-20T05:36:04;7.80;99.90
31131;DHT22;20292;50.944;4.034;2022-11-20T05:38:29;7.70;99.90
31131;DHT22;20292;50.944;4.034;2022-11-20T05:41:02;7.70;99.90
31131;DHT22;20292;50.944;4.034;2022-11-20T05:43:27;7.70;99.90
31131;DHT22;20292;50.944;4.034;2022-11-20T05:45:54;7.70;99.90
31131;DHT22;20292;50.944;4.034;2022-11-20T05:48:20;7.60;99.90
31131;DHT22;20292;50.944;4.034;2022-11-20T05:50:46;7.70;99.90
31131;DHT22;20292;50.944;4.034;2022-11-20T05:53:11;7.60;99.90
31131;DHT22;20292;50.944;4.034;2022-11-20T05:55:37;7.60;99.90
31131;DHT22;20292;50.944;4.034;2022-11-20T05:58:02;7.60;99.90
31131;DHT22;20292;50.944;4.034;2022-11-20T06:00:28;7.70;99.90
31131;DHT22;20292;50.944;4.034;2022-11-20T06:02:53;7.70;99.90
31131;DHT22;20292;50.944;4.034;2022-11-20T06:05:19;7.70;99.90
31131;DHT22;20292;50.944;4.034;2022-11-20T06:07:44;7.70;99.90
31131;DHT22;20292;50.944;4.034;2022-11-20T06:10:10;7.60;99.90
31131;DHT22;20292;50.944;4.034;2022-11-20T06:12:36;7.60;99.90
31131;DHT22;20292;50.944;4.034;2022-11-20T06:15:02;7.60;99.90
31131;DHT22;20292;50.944;4.034;2022-11-20T06:17:27;7.60;99.90
31131;DHT22;20292;50.944;4.034;2022-11-20T06:19:53;7.60;99.90
31131;DHT22;20292;50.944;4.034;2022-11-20T06:22:19;7.70;99.90
31131;DHT22;20292;50.944;4.034;2022-11-20T06:24:44;7.70;99.90
31131;DHT22;20292;50.944;4.034;2022-11-20T06:27:10;7.80;99.90
31131;DHT22;20292;50.944;4.034;2022-11-20T06:29:35;7.90;99.90
31131;DHT22;20292;50.944;4.034;2022-11-20T06:32:01;7.80;99.90
31131;DHT22;20292;50.944;4.034;2022-11-20T06:34:27;7.90;99.90
31131;DHT22;20292;50.944;4.034;2022-11-20T06:36:52;7.90;99.90
31131;DHT22;20292;50.944;4.034;2022-11-20T06:39:18;7.90;99.90
31131;DHT22;20292;50.944;4.034;2022-11-20T06:41:43;7.90;99.90
31131;DHT22;20292;50.944;4.034;2022-11-20T06:44:09;7.90;99.90
31131;DHT22;20292;50.944;4.034;2022-11-20T06:46:35;8.00;99.90
31131;DHT22;20292;50.944;4.034;2022-11-20T06:49:00;7.90;99.90
31131;DHT22;20292;50.944;4.034;2022-11-20T06:51:26;8.00;99.90
31131;DHT22;20292;50.944;4.034;2022-11-20T06:53:51;7.90;99.90
31131;DHT22;20292;50.944;4.034;2022-11-20T06:56:18;7.90;99.90
31131;DHT22;20292;50.944;4.034;2022-11-20T06:58:43;8.00;99.90
31131;DHT22;20292;50.944;4.034;2022-11-20T07:01:11;8.10;99.90
31131;DHT22;20292;50.944;4.034;2022-11-20T07:03:37;8.10;99.90
31131;DHT22;20292;50.944;4.034;2022-11-20T07:06:04;8.20;99.90
31131;DHT22;20292;50.944;4.034;2022-11-20T07:08:30;8.30;99.90
31131;DHT22;20292;50.944;4.034;2022-11-20T07:11:00;8.30;99.90
31131;DHT22;20292;50.944;4.034;2022-11-20T07:13:27;8.30;99.90
31131;DHT22;20292;50.944;4.034;2022-11-20T07:15:54;8.20;99.90
31131;DHT22;20292;50.944;4.034;2022-11-20T07:18:19;8.20;99.90
31131;DHT22;20292;50.944;4.034;2022-11-20T07:20:45;8.20;99.90
31131;DHT22;20292;50.944;4.034;2022-11-20T07:23:11;8.20;99.90
31131;DHT22;20292;50.944;4.034;2022-11-20T07:25:36;8.20;99.90
31131;DHT22;20292;50.944;4.034;2022-11-20T07:28:02;8.30;99.90
31131;DHT22;20292;50.944;4.034;2022-11-20T07:30:29;8.40;99.90
31131;DHT22;20292;50.944;4.034;2022-11-20T07:32:56;8.40;99.90
31131;DHT22;20292;50.944;4.034;2022-11-20T07:35:23;8.40;99.90
31131;DHT22;20292;50.944;4.034;2022-11-20T07:37:48;8.40;99.90
31131;DHT22;20292;50.944;4.034;2022-11-20T07:40:15;8.50;99.90
31131;DHT22;20292;50.944;4.034;2022-11-20T07:42:48;8.50;99.90
31131;DHT22;20292;50.944;4.034;2022-11-20T07:45:14;8.50;99.90
31131;DHT22;20292;50.944;4.034;2022-11-20T07:47:39;8.50;99.90
31131;DHT22;20292;50.944;4.034;2022-11-20T07:50:05;8.60;99.90
31131;DHT22;20292;50.944;4.034;2022-11-20T07:52:31;8.70;99.90
31131;DHT22;20292;50.944;4.034;2022-11-20T07:54:57;8.70;99.90
31131;DHT22;20292;50.944;4.034;2022-11-20T07:57:22;8.80;99.90
31131;DHT22;20292;50.944;4.034;2022-11-20T07:59:48;8.80;99.90
31131;DHT22;20292;50.944;4.034;2022-11-20T08:02:13;8.80;99.90
31131;DHT22;20292;50.944;4.034;2022-11-20T08:04:39;8.80;99.90
31131;DHT22;20292;50.944;4.034;2022-11-20T08:07:04;8.70;99.90
31131;DHT22;20292;50.944;4.034;2022-11-20T08:09:30;8.70;99.90
31131;DHT22;20292;50.944;4.034;2022-11-20T08:11:55;8.70;99.90
31131;DHT22;20292;50.944;4.034;2022-11-20T08:14:40;8.70;99.90
31131;DHT22;20292;50.944;4.034;2022-11-20T08:17:05;8.70;99.90
31131;DHT22;20292;50.944;4.034;2022-11-20T08:19:31;8.80;99.90
31131;DHT22;20292;50.944;4.034;2022-11-20T08:21:56;8.90;99.90
31131;DHT22;20292;50.944;4.034;2022-11-20T08:24:22;8.90;99.90
31131;DHT22;20292;50.944;4.034;2022-11-20T08:26:47;8.90;99.90
31131;DHT22;20292;50.944;4.034;2022-11-20T08:29:13;8.90;99.90
31131;DHT22;20292;50.944;4.034;2022-11-20T08:31:39;8.80;99.90
31131;DHT22;20292;50.944;4.034;2022-11-20T08:34:04;8.80;99.90
31131;DHT22;20292;50.944;4.034;2022-11-20T08:36:33;8.80;99.90
31131;DHT22;20292;50.944;4.034;2022-11-20T08:38:58;8.80;99.90
31131;DHT22;20292;50.944;4.034;2022-11-20T08:41:24;8.80;99.90
31131;DHT22;20292;50.944;4.034;2022-11-20T08:43:52;8.80;99.90
31131;DHT22;20292;50.944;4.034;2022-11-20T08:46:18;8.90;99.90
31131;DHT22;20292;50.944;4.034;2022-11-20T08:48:44;8.90;99.90
31131;DHT22;20292;50.944;4.034;2022-11-20T08:51:10;8.90;99.90
31131;DHT22;20292;50.944;4.034;2022-11-20T08:53:36;9.00;99.90
31131;DHT22;20292;50.944;4.034;2022-11-20T08:56:02;8.90;99.90
31131;DHT22;20292;50.944;4.034;2022-11-20T08:58:27;8.90;99.90
31131;DHT22;20292;50.944;4.034;2022-11-20T09:00:53;9.00;99.90
31131;DHT22;20292;50.944;4.034;2022-11-20T09:03:19;8.90;99.90
31131;DHT22;20292;50.944;4.034;2022-11-20T09:05:45;9.00;99.90
31131;DHT22;20292;50.944;4.034;2022-11-20T09:08:10;9.00;99.90
31131;DHT22;20292;50.944;4.034;2022-11-20T09:10:36;9.10;99.90
31131;DHT22;20292;50.944;4.034;2022-11-20T09:13:04;9.10;99.90
31131;DHT22;20292;50.944;4.034;2022-11-20T09:15:30;9.20;99.90
31131;DHT22;20292;50.944;4.034;2022-11-20T09:18:03;9.30;99.90
31131;DHT22;20292;50.944;4.034;2022-11-20T09:20:30;9.30;99.90
31131;DHT22;20292;50.944;4.034;2022-11-20T09:22:57;9.30;99.90
31131;DHT22;20292;50.944;4.034;2022-11-20T09:25:22;9.30;99.90
31131;DHT22;20292;50.944;4.034;2022-11-20T09:27:54;9.30;99.90
31131;DHT22;20292;50.944;4.034;2022-11-20T09:30:19;9.40;99.90
31131;DHT22;20292;50.944;4.034;2022-11-20T09:32:45;9.40;99.90
31131;DHT22;20292;50.944;4.034;2022-11-20T09:35:11;9.40;99.90
31131;DHT22;20292;50.944;4.034;2022-11-20T09:37:37;9.40;99.90
31131;DHT22;20292;50.944;4.034;2022-11-20T09:40:02;9.50;99.90
31131;DHT22;20292;50.944;4.034;2022-11-20T09:42:47;9.60;99.90
31131;DHT22;20292;50.944;4.034;2022-11-20T09:45:23;9.70;99.90
31131;DHT22;20292;50.944;4.034;2022-11-20T09:50:45;9.80;99.90
31131;DHT22;20292;50.944;4.034;2022-11-20T09:53:35;9.90;99.90
31131;DHT22;20292;50.944;4.034;2022-11-20T09:56:09;9.90;99.90
31131;DHT22;20292;50.944;4.034;2022-11-20T09:58:49;10.00;99.90
31131;DHT22;20292;50.944;4.034;2022-11-20T10:01:17;10.00;99.90
31131;DHT22;20292;50.944;4.034;2022-11-20T10:04:06;10.10;99.90
31131;DHT22;20292;50.944;4.034;2022-11-20T10:06:44;10.10;99.90
31131;DHT22;20292;50.944;4.034;2022-11-20T10:11:51;10.20;99.90
31131;DHT22;20292;50.944;4.034;2022-11-20T10:14:26;10.30;99.90
31131;DHT22;20292;50.944;4.034;2022-11-20T10:17:00;10.40;99.90
31131;DHT22;20292;50.944;4.034;2022-11-20T10:25:14;10.70;99.90
31131;DHT22;20292;50.944;4.034;2022-11-20T10:30:31;10.90;99.90
31131;DHT22;20292;50.944;4.034;2022-11-20T10:33:06;10.90;99.90
31131;DHT22;20292;50.944;4.034;2022-11-20T10:35:45;11.00;99.90
31131;DHT22;20292;50.944;4.034;2022-11-20T10:38:37;11.00;99.90
31131;DHT22;20292;50.944;4.034;2022-11-20T10:41:05;11.00;99.90
31131;DHT22;20292;50.944;4.034;2022-11-20T10:46:43;11.00;99.90
31131;DHT22;20292;50.944;4.034;2022-11-20T10:49:17;11.10;99.90
31131;DHT22;20292;50.944;4.034;2022-11-20T10:55:03;11.00;99.90
31131;DHT22;20292;50.944;4.034;2022-11-20T10:57:54;11.00;99.90
31131;DHT22;20292;50.944;4.034;2022-11-20T11:00:25;11.00;99.90
31131;DHT22;20292;50.944;4.034;2022-11-20T11:02:53;10.90;99.90
31131;DHT22;20292;50.944;4.034;2022-11-20T11:08:00;11.10;99.90
31131;DHT22;20292;50.944;4.034;2022-11-20T11:10:36;11.00;99.90
31131;DHT22;20292;50.944;4.034;2022-11-20T11:13:03;10.90;99.90
31131;DHT22;20292;50.944;4.034;2022-11-20T11:15:36;10.90;99.90
31131;DHT22;20292;50.944;4.034;2022-11-20T11:18:03;10.90;99.90
31131;DHT22;20292;50.944;4.034;2022-11-20T11:20:29;10.90;99.90
31131;DHT22;20292;50.944;4.034;2022-11-20T11:22:57;10.90;99.90
31131;DHT22;20292;50.944;4.034;2022-11-20T11:25:36;10.90;99.90
31131;DHT22;20292;50.944;4.034;2022-11-20T11:28:22;10.90;99.90
31131;DHT22;20292;50.944;4.034;2022-11-20T11:30:50;10.90;99.90
31131;DHT22;20292;50.944;4.034;2022-11-20T11:35:49;10.90;99.90
31131;DHT22;20292;50.944;4.034;2022-11-20T11:38:22;10.90;99.90
31131;DHT22;20292;50.944;4.034;2022-11-20T11:40:49;10.90;99.90
31131;DHT22;20292;50.944;4.034;2022-11-20T11:43:21;10.90;99.90
31131;DHT22;20292;50.944;4.034;2022-11-20T11:49:11;10.80;99.90
31131;DHT22;20292;50.944;4.034;2022-11-20T11:55:14;10.50;99.90
31131;DHT22;20292;50.944;4.034;2022-11-20T11:57:51;10.40;99.90
31131;DHT22;20292;50.944;4.034;2022-11-20T12:00:20;10.40;99.90
31131;DHT22;20292;50.944;4.034;2022-11-20T12:08:02;10.30;99.90
31131;DHT22;20292;50.944;4.034;2022-11-20T12:10:40;10.30;99.90
31131;DHT22;20292;50.944;4.034;2022-11-20T12:13:26;10.30;99.90
31131;DHT22;20292;50.944;4.034;2022-11-20T12:15:56;10.30;99.90
31131;DHT22;20292;50.944;4.034;2022-11-20T12:18:22;10.30;99.90
31131;DHT22;20292;50.944;4.034;2022-11-20T12:23:41;10.30;99.90
31131;DHT22;20292;50.944;4.034;2022-11-20T12:29:31;10.30;99.90
31131;DHT22;20292;50.944;4.034;2022-11-20T12:35:20;10.50;99.90
31131;DHT22;20292;50.944;4.034;2022-11-20T12:42:59;10.60;99.90
31131;DHT22;20292;50.944;4.034;2022-11-20T12:53:59;10.70;99.90
31131;DHT22;20292;50.944;4.034;2022-11-20T12:56:40;10.70;99.90
31131;DHT22;20292;50.944;4.034;2022-11-20T13:02:33;10.70;99.90
31131;DHT22;20292;50.944;4.034;2022-11-20T13:05:21;10.60;99.90
31131;DHT22;20292;50.944;4.034;2022-11-20T13:07:52;10.50;99.90
31131;DHT22;20292;50.944;4.034;2022-11-20T13:10:30;10.50;99.90
31131;DHT22;20292;50.944;4.034;2022-11-20T13:13:05;10.40;99.90
31131;DHT22;20292;50.944;4.034;2022-11-20T13:15:42;10.40;99.90
31131;DHT22;20292;50.944;4.034;2022-11-20T13:18:11;10.40;99.90
31131;DHT22;20292;50.944;4.034;2022-11-20T13:20:42;10.50;99.90
31131;DHT22;20292;50.944;4.034;2022-11-20T13:23:08;10.40;99.90
31131;DHT22;20292;50.944;4.034;2022-11-20T13:25:37;10.30;99.90
31131;DHT22;20292;50.944;4.034;2022-11-20T13:30:35;10.30;99.90
31131;DHT22;20292;50.944;4.034;2022-11-20T13:33:08;10.20;99.90
31131;DHT22;20292;50.944;4.034;2022-11-20T13:35:41;10.30;99.90
31131;DHT22;20292;50.944;4.034;2022-11-20T13:38:12;10.20;99.90
31131;DHT22;20292;50.944;4.034;2022-11-20T13:40:57;10.20;99.90
31131;DHT22;20292;50.944;4.034;2022-11-20T13:43:36;10.30;99.90
31131;DHT22;20292;50.944;4.034;2022-11-20T13:46:05;10.40;99.90
31131;DHT22;20292;50.944;4.034;2022-11-20T13:48:41;10.40;99.90
31131;DHT22;20292;50.944;4.034;2022-11-20T13:54:36;10.40;99.90
31131;DHT22;20292;50.944;4.034;2022-11-20T14:00:30;10.20;99.90
31131;DHT22;20292;50.944;4.034;2022-11-20T14:02:37;10.20;99.90
31131;DHT22;20292;50.944;4.034;2022-11-20T14:05:04;10.20;99.90
31131;DHT22;20292;50.944;4.034;2022-11-20T14:07:41;10.20;99.90
31131;DHT22;20292;50.944;4.034;2022-11-20T14:10:26;10.10;99.90
31131;DHT22;20292;50.944;4.034;2022-11-20T14:12:52;10.10;99.90
31131;DHT22;20292;50.944;4.034;2022-11-20T14:17:51;10.10;99.90
31131;DHT22;20292;50.944;4.034;2022-11-20T14:20:16;10.10;99.90
31131;DHT22;20292;50.944;4.034;2022-11-20T14:22:49;10.20;99.90
31131;DHT22;20292;50.944;4.034;2022-11-20T14:27:43;10.20;99.90
31131;DHT22;20292;50.944;4.034;2022-11-20T14:30:15;10.10;99.90
31131;DHT22;20292;50.944;4.034;2022-11-20T14:32:42;10.20;99.90
31131;DHT22;20292;50.944;4.034;2022-11-20T14:35:15;10.20;99.90
31131;DHT22;20292;50.944;4.034;2022-11-20T14:37:44;10.30;99.90
31131;DHT22;20292;50.944;4.034;2022-11-20T14:40:24;10.40;99.90
31131;DHT22;20292;50.944;4.034;2022-11-20T14:42:49;10.50;99.90
31131;DHT22;20292;50.944;4.034;2022-11-20T14:45:16;10.50;99.90
31131;DHT22;20292;50.944;4.034;2022-11-20T14:47:42;10.60;99.90
31131;DHT22;20292;50.944;4.034;2022-11-20T14:50:22;10.60;99.90
31131;DHT22;20292;50.944;4.034;2022-11-20T14:52:56;10.60;99.90
31131;DHT22;20292;50.944;4.034;2022-11-20T14:55:33;10.70;99.90
31131;DHT22;20292;50.944;4.034;2022-11-20T14:58:04;10.80;99.90
31131;DHT22;20292;50.944;4.034;2022-11-20T15:00:32;10.90;99.90
31131;DHT22;20292;50.944;4.034;2022-11-20T15:02:57;10.90;99.90
31131;DHT22;20292;50.944;4.034;2022-11-20T15:05:46;11.00;99.90
31131;DHT22;20292;50.944;4.034;2022-11-20T15:08:13;11.00;99.90
31131;DHT22;20292;50.944;4.034;2022-11-20T15:10:44;11.00;99.90
31131;DHT22;20292;50.944;4.034;2022-11-20T15:13:37;11.00;99.90
31131;DHT22;20292;50.944;4.034;2022-11-20T15:16:03;11.00;99.90
31131;DHT22;20292;50.944;4.034;2022-11-20T15:18:38;11.00;99.90
31131;DHT22;20292;50.944;4.034;2022-11-20T15:21:11;11.00;99.90
31131;DHT22;20292;50.944;4.034;2022-11-20T15:23:37;11.00;99.90
31131;DHT22;20292;50.944;4.034;2022-11-20T15:26:11;10.90;99.90
31131;DHT22;20292;50.944;4.034;2022-11-20T15:28:40;10.90;99.90
31131;DHT22;20292;50.944;4.034;2022-11-20T15:31:06;10.80;99.90
31131;DHT22;20292;50.944;4.034;2022-11-20T15:33:32;10.90;99.90
31131;DHT22;20292;50.944;4.034;2022-11-20T15:35:59;10.80;99.90
31131;DHT22;20292;50.944;4.034;2022-11-20T15:38:24;10.70;99.90
31131;DHT22;20292;50.944;4.034;2022-11-20T15:40:50;10.70;99.90
31131;DHT22;20292;50.944;4.034;2022-11-20T15:43:16;10.60;99.90
31131;DHT22;20292;50.944;4.034;2022-11-20T15:45:48;10.50;99.90
31131;DHT22;20292;50.944;4.034;2022-11-20T15:48:20;10.50;99.90
31131;DHT22;20292;50.944;4.034;2022-11-20T15:53:29;10.40;99.90
31131;DHT22;20292;50.944;4.034;2022-11-20T15:55:55;10.50;99.90
31131;DHT22;20292;50.944;4.034;2022-11-20T15:58:21;10.50;99.90
31131;DHT22;20292;50.944;4.034;2022-11-20T16:00:48;10.50;99.90
31131;DHT22;20292;50.944;4.034;2022-11-20T16:03:15;10.50;99.90
31131;DHT22;20292;50.944;4.034;2022-11-20T16:05:40;10.40;99.90
31131;DHT22;20292;50.944;4.034;2022-11-20T16:08:06;10.30;99.90
31131;DHT22;20292;50.944;4.034;2022-11-20T16:10:32;10.30;99.90
31131;DHT22;20292;50.944;4.034;2022-11-20T16:12:58;10.20;99.90
31131;DHT22;20292;50.944;4.034;2022-11-20T16:15:44;10.20;99.90
31131;DHT22;20292;50.944;4.034;2022-11-20T16:18:16;10.20;99.90
31131;DHT22;20292;50.944;4.034;2022-11-20T16:20:43;10.10;99.90
31131;DHT22;20292;50.944;4.034;2022-11-20T16:23:09;10.00;99.90
31131;DHT22;20292;50.944;4.034;2022-11-20T16:25:34;10.10;99.90
31131;DHT22;20292;50.944;4.034;2022-11-20T16:28:00;10.00;99.90
31131;DHT22;20292;50.944;4.034;2022-11-20T16:30:26;10.10;99.90
31131;DHT22;20292;50.944;4.034;2022-11-20T16:32:51;10.10;99.90
31131;DHT22;20292;50.944;4.034;2022-11-20T16:35:17;10.10;99.90
31131;DHT22;20292;50.944;4.034;2022-11-20T16:37:43;10.10;99.90
31131;DHT22;20292;50.944;4.034;2022-11-20T16:40:10;10.00;99.90
31131;DHT22;20292;50.944;4.034;2022-11-20T16:42:36;9.80;99.90
31131;DHT22;20292;50.944;4.034;2022-11-20T16:45:03;9.70;99.90
31131;DHT22;20292;50.944;4.034;2022-11-20T16:47:33;9.70;99.90
31131;DHT22;20292;50.944;4.034;2022-11-20T16:49:59;9.80;99.90
31131;DHT22;20292;50.944;4.034;2022-11-20T16:52:24;10.00;99.90
31131;DHT22;20292;50.944;4.034;2022-11-20T16:54:50;10.00;99.90
31131;DHT22;20292;50.944;4.034;2022-11-20T16:57:15;10.20;99.90
31131;DHT22;20292;50.944;4.034;2022-11-20T16:59:41;10.40;99.90
31131;DHT22;20292;50.944;4.034;2022-11-20T17:02:08;10.50;99.90
31131;DHT22;20292;50.944;4.034;2022-11-20T17:04:34;10.60;99.90
31131;DHT22;20292;50.944;4.034;2022-11-20T17:07:00;10.70;99.90
31131;DHT22;20292;50.944;4.034;2022-11-20T17:09:27;10.70;99.90
31131;DHT22;20292;50.944;4.034;2022-11-20T17:11:53;10.70;99.90